sensor_id;sensor_type;location;lat;lon;timestamp;P1;durP1;ratioP1;P2;durP2;ratioP2
32200;SDS011;18701;45.588;5.288;2023-05-28T00:00:23;6.72;;;4.30;;
32200;SDS011;18701;45.588;5.288;2023-05-28T00:02:49;12.05;;;4.40;;
32200;SDS011;18701;45.588;5.288;2023-05-28T00:05:14;7.82;;;4.32;;
32200;SDS011;18701;45.588;5.288;2023-05-28T00:07:40;8.68;;;4.20;;
32200;SDS011;18701;45.588;5.288;2023-05-28T00:10:07;9.63;;;4.40;;
32200;SDS011;18701;45.588;5.288;2023-05-28T00:12:32;9.90;;;4.40;;
32200;SDS011;18701;45.588;5.288;2023-05-28T00:14:58;9.80;;;4.50;;
32200;SDS011;18701;45.588;5.288;2023-05-28T00:17:24;8.70;;;4.38;;
32200;SDS011;18701;45.588;5.288;2023-05-28T00:19:50;9.75;;;4.75;;
32200;SDS011;18701;45.588;5.288;2023-05-28T00:22:16;6.88;;;4.90;;
32200;SDS011;18701;45.588;5.288;2023-05-28T00:24:41;8.10;;;3.80;;
32200;SDS011;18701;45.588;5.288;2023-05-28T00:27:07;8.73;;;4.05;;
32200;SDS011;18701;45.588;5.288;2023-05-28T00:29:32;9.40;;;4.72;;
32200;SDS011;18701;45.588;5.288;2023-05-28T00:31:58;9.48;;;4.35;;
32200;SDS011;18701;45.588;5.288;2023-05-28T00:34:24;15.05;;;4.68;;
32200;SDS011;18701;45.588;5.288;2023-05-28T00:36:50;9.55;;;4.47;;
32200;SDS011;18701;45.588;5.288;2023-05-28T00:39:19;14.68;;;4.28;;
32200;SDS011;18701;45.588;5.288;2023-05-28T00:41:45;8.32;;;4.80;;
32200;SDS011;18701;45.588;5.288;2023-05-28T00:44:12;9.10;;;4.63;;
32200;SDS011;18701;45.588;5.288;2023-05-28T00:46:41;9.65;;;4.10;;
32200;SDS011;18701;45.588;5.288;2023-05-28T00:49:09;7.55;;;4.00;;
32200;SDS011;18701;45.588;5.288;2023-05-28T00:51:36;9.25;;;4.03;;
32200;SDS011;18701;45.588;5.288;2023-05-28T00:54:02;9.90;;;4.28;;
32200;SDS011;18701;45.588;5.288;2023-05-28T00:56:28;8.38;;;4.70;;
32200;SDS011;18701;45.588;5.288;2023-05-28T00:58:56;6.60;;;4.45;;
32200;SDS011;18701;45.588;5.288;2023-05-28T01:01:25;8.68;;;4.15;;
32200;SDS011;18701;45.588;5.288;2023-05-28T01:03:51;5.25;;;3.97;;
32200;SDS011;18701;45.588;5.288;2023-05-28T01:06:18;8.48;;;3.95;;
32200;SDS011;18701;45.588;5.288;2023-05-28T01:08:46;6.28;;;4.38;;
32200;SDS011;18701;45.588;5.288;2023-05-28T01:11:16;9.40;;;4.50;;
32200;SDS011;18701;45.588;5.288;2023-05-28T01:13:43;6.85;;;4.30;;
32200;SDS011;18701;45.588;5.288;2023-05-28T01:16:11;7.22;;;4.63;;
32200;SDS011;18701;45.588;5.288;2023-05-28T01:18:38;9.98;;;5.15;;
32200;SDS011;18701;45.588;5.288;2023-05-28T01:21:05;23.40;;;5.55;;
32200;SDS011;18701;45.588;5.288;2023-05-28T01:23:39;13.57;;;4.95;;
32200;SDS011;18701;45.588;5.288;2023-05-28T01:26:08;7.13;;;4.32;;
32200;SDS011;18701;45.588;5.288;2023-05-28T01:28:34;10.20;;;4.75;;
32200;SDS011;18701;45.588;5.288;2023-05-28T01:31:00;13.52;;;4.28;;
32200;SDS011;18701;45.588;5.288;2023-05-28T01:33:26;11.15;;;4.85;;
32200;SDS011;18701;45.588;5.288;2023-05-28T01:35:52;10.32;;;4.13;;
32200;SDS011;18701;45.588;5.288;2023-05-28T01:38:20;9.20;;;3.90;;
32200;SDS011;18701;45.588;5.288;2023-05-28T01:40:47;5.85;;;4.45;;
32200;SDS011;18701;45.588;5.288;2023-05-28T01:43:14;5.70;;;3.95;;
32200;SDS011;18701;45.588;5.288;2023-05-28T01:45:40;8.77;;;4.20;;
32200;SDS011;18701;45.588;5.288;2023-05-28T01:48:06;8.32;;;4.40;;
32200;SDS011;18701;45.588;5.288;2023-05-28T01:50:32;7.03;;;4.63;;
32200;SDS011;18701;45.588;5.288;2023-05-28T01:52:58;6.25;;;4.28;;
32200;SDS011;18701;45.588;5.288;2023-05-28T01:55:25;10.82;;;4.53;;
32200;SDS011;18701;45.588;5.288;2023-05-28T01:57:51;9.45;;;4.60;;
32200;SDS011;18701;45.588;5.288;2023-05-28T02:00:17;12.30;;;4.40;;
32200;SDS011;18701;45.588;5.288;2023-05-28T02:02:43;11.95;;;4.43;;
32200;SDS011;18701;45.588;5.288;2023-05-28T02:05:08;9.65;;;4.43;;
32200;SDS011;18701;45.588;5.288;2023-05-28T02:07:34;8.80;;;4.20;;
32200;SDS011;18701;45.588;5.288;2023-05-28T02:10:00;7.05;;;4.07;;
32200;SDS011;18701;45.588;5.288;2023-05-28T02:12:26;9.30;;;4.70;;
32200;SDS011;18701;45.588;5.288;2023-05-28T02:14:51;5.95;;;4.75;;
32200;SDS011;18701;45.588;5.288;2023-05-28T02:17:17;8.45;;;4.35;;
32200;SDS011;18701;45.588;5.288;2023-05-28T02:19:44;10.13;;;4.78;;
32200;SDS011;18701;45.588;5.288;2023-05-28T02:22:10;11.40;;;5.18;;
32200;SDS011;18701;45.588;5.288;2023-05-28T02:24:39;10.02;;;5.00;;
32200;SDS011;18701;45.588;5.288;2023-05-28T02:27:06;10.27;;;4.45;;
32200;SDS011;18701;45.588;5.288;2023-05-28T02:29:33;8.40;;;4.70;;
32200;SDS011;18701;45.588;5.288;2023-05-28T02:31:59;11.20;;;4.63;;
32200;SDS011;18701;45.588;5.288;2023-05-28T02:34:26;9.95;;;4.88;;
32200;SDS011;18701;45.588;5.288;2023-05-28T02:36:53;10.75;;;4.32;;
32200;SDS011;18701;45.588;5.288;2023-05-28T02:39:20;9.18;;;4.35;;
32200;SDS011;18701;45.588;5.288;2023-05-28T02:41:46;12.23;;;4.63;;
32200;SDS011;18701;45.588;5.288;2023-05-28T02:44:12;6.78;;;4.55;;
32200;SDS011;18701;45.588;5.288;2023-05-28T02:46:37;10.85;;;4.82;;
32200;SDS011;18701;45.588;5.288;2023-05-28T02:49:03;9.90;;;4.40;;
32200;SDS011;18701;45.588;5.288;2023-05-28T02:51:29;8.05;;;4.50;;
32200;SDS011;18701;45.588;5.288;2023-05-28T02:53:54;11.00;;;5.00;;
32200;SDS011;18701;45.588;5.288;2023-05-28T02:56:20;8.35;;;4.65;;
32200;SDS011;18701;45.588;5.288;2023-05-28T02:58:46;11.02;;;5.05;;
32200;SDS011;18701;45.588;5.288;2023-05-28T03:01:12;5.95;;;4.70;;
32200;SDS011;18701;45.588;5.288;2023-05-28T03:03:37;8.70;;;4.25;;
32200;SDS011;18701;45.588;5.288;2023-05-28T03:06:03;8.35;;;4.38;;
32200;SDS011;18701;45.588;5.288;2023-05-28T03:08:29;9.93;;;5.07;;
32200;SDS011;18701;45.588;5.288;2023-05-28T03:10:55;7.57;;;4.53;;
32200;SDS011;18701;45.588;5.288;2023-05-28T03:13:20;11.05;;;5.00;;
32200;SDS011;18701;45.588;5.288;2023-05-28T03:15:46;9.50;;;4.65;;
32200;SDS011;18701;45.588;5.288;2023-05-28T03:18:11;13.77;;;5.28;;
32200;SDS011;18701;45.588;5.288;2023-05-28T03:20:37;8.20;;;4.68;;
32200;SDS011;18701;45.588;5.288;2023-05-28T03:23:03;11.68;;;4.80;;
32200;SDS011;18701;45.588;5.288;2023-05-28T03:25:29;13.65;;;5.47;;
32200;SDS011;18701;45.588;5.288;2023-05-28T03:27:55;6.38;;;4.50;;
32200;SDS011;18701;45.588;5.288;2023-05-28T03:30:21;10.35;;;4.85;;
32200;SDS011;18701;45.588;5.288;2023-05-28T03:32:48;9.07;;;4.85;;
32200;SDS011;18701;45.588;5.288;2023-05-28T03:35:14;6.43;;;4.28;;
32200;SDS011;18701;45.588;5.288;2023-05-28T03:37:40;8.98;;;4.35;;
32200;SDS011;18701;45.588;5.288;2023-05-28T03:40:06;9.80;;;5.35;;
32200;SDS011;18701;45.588;5.288;2023-05-28T03:42:33;10.30;;;4.38;;
32200;SDS011;18701;45.588;5.288;2023-05-28T03:45:00;8.02;;;4.25;;
32200;SDS011;18701;45.588;5.288;2023-05-28T03:47:25;14.98;;;5.32;;
32200;SDS011;18701;45.588;5.288;2023-05-28T03:49:52;9.38;;;4.53;;
32200;SDS011;18701;45.588;5.288;2023-05-28T03:52:18;6.88;;;4.72;;
32200;SDS011;18701;45.588;5.288;2023-05-28T03:54:43;10.30;;;4.60;;
32200;SDS011;18701;45.588;5.288;2023-05-28T03:57:09;9.88;;;4.97;;
32200;SDS011;18701;45.588;5.288;2023-05-28T03:59:36;7.75;;;4.95;;
32200;SDS011;18701;45.588;5.288;2023-05-28T04:02:02;12.75;;;5.03;;
32200;SDS011;18701;45.588;5.288;2023-05-28T04:04:27;7.85;;;4.63;;
32200;SDS011;18701;45.588;5.288;2023-05-28T04:06:53;12.45;;;5.95;;
32200;SDS011;18701;45.588;5.288;2023-05-28T04:09:18;8.75;;;5.43;;
32200;SDS011;18701;45.588;5.288;2023-05-28T04:11:44;12.43;;;5.20;;
32200;SDS011;18701;45.588;5.288;2023-05-28T04:14:10;7.07;;;4.50;;
32200;SDS011;18701;45.588;5.288;2023-05-28T04:16:36;8.25;;;4.93;;
32200;SDS011;18701;45.588;5.288;2023-05-28T04:19:02;10.88;;;4.65;;
32200;SDS011;18701;45.588;5.288;2023-05-28T04:21:27;10.52;;;4.80;;
32200;SDS011;18701;45.588;5.288;2023-05-28T04:23:54;11.95;;;4.95;;
32200;SDS011;18701;45.588;5.288;2023-05-28T04:26:20;10.60;;;4.85;;
32200;SDS011;18701;45.588;5.288;2023-05-28T04:28:47;8.38;;;5.07;;
32200;SDS011;18701;45.588;5.288;2023-05-28T04:31:13;10.93;;;4.85;;
32200;SDS011;18701;45.588;5.288;2023-05-28T04:33:39;11.23;;;4.45;;
32200;SDS011;18701;45.588;5.288;2023-05-28T04:36:05;15.40;;;4.78;;
32200;SDS011;18701;45.588;5.288;2023-05-28T04:38:33;9.90;;;4.90;;
32200;SDS011;18701;45.588;5.288;2023-05-28T04:40:59;11.35;;;5.00;;
32200;SDS011;18701;45.588;5.288;2023-05-28T04:43:25;7.47;;;4.70;;
32200;SDS011;18701;45.588;5.288;2023-05-28T04:45:51;8.85;;;4.75;;
32200;SDS011;18701;45.588;5.288;2023-05-28T04:48:18;7.63;;;5.30;;
32200;SDS011;18701;45.588;5.288;2023-05-28T04:50:44;15.10;;;5.68;;
32200;SDS011;18701;45.588;5.288;2023-05-28T04:53:10;16.05;;;5.97;;
32200;SDS011;18701;45.588;5.288;2023-05-28T04:55:35;6.90;;;5.05;;
32200;SDS011;18701;45.588;5.288;2023-05-28T04:58:01;8.60;;;5.10;;
32200;SDS011;18701;45.588;5.288;2023-05-28T05:00:26;10.27;;;5.38;;
32200;SDS011;18701;45.588;5.288;2023-05-28T05:02:53;9.75;;;4.65;;
32200;SDS011;18701;45.588;5.288;2023-05-28T05:05:19;13.98;;;5.55;;
32200;SDS011;18701;45.588;5.288;2023-05-28T05:07:45;7.45;;;5.50;;
32200;SDS011;18701;45.588;5.288;2023-05-28T05:10:11;10.10;;;5.20;;
32200;SDS011;18701;45.588;5.288;2023-05-28T05:12:36;13.00;;;5.57;;
32200;SDS011;18701;45.588;5.288;2023-05-28T05:15:03;10.52;;;4.72;;
32200;SDS011;18701;45.588;5.288;2023-05-28T05:17:30;12.25;;;5.55;;
32200;SDS011;18701;45.588;5.288;2023-05-28T05:19:56;9.02;;;5.53;;
32200;SDS011;18701;45.588;5.288;2023-05-28T05:22:22;16.33;;;5.47;;
32200;SDS011;18701;45.588;5.288;2023-05-28T05:24:48;9.13;;;5.15;;
32200;SDS011;18701;45.588;5.288;2023-05-28T05:27:14;10.02;;;5.28;;
32200;SDS011;18701;45.588;5.288;2023-05-28T05:29:40;14.45;;;5.30;;
32200;SDS011;18701;45.588;5.288;2023-05-28T05:32:06;10.40;;;5.15;;
32200;SDS011;18701;45.588;5.288;2023-05-28T05:34:32;10.30;;;4.90;;
32200;SDS011;18701;45.588;5.288;2023-05-28T05:36:57;9.90;;;4.88;;
32200;SDS011;18701;45.588;5.288;2023-05-28T05:39:26;10.90;;;4.88;;
32200;SDS011;18701;45.588;5.288;2023-05-28T05:41:52;8.23;;;4.60;;
32200;SDS011;18701;45.588;5.288;2023-05-28T05:44:18;7.80;;;4.30;;
32200;SDS011;18701;45.588;5.288;2023-05-28T05:46:43;8.85;;;5.28;;
32200;SDS011;18701;45.588;5.288;2023-05-28T05:49:09;13.73;;;5.22;;
32200;SDS011;18701;45.588;5.288;2023-05-28T05:51:35;10.07;;;5.30;;
32200;SDS011;18701;45.588;5.288;2023-05-28T05:54:01;7.43;;;4.70;;
32200;SDS011;18701;45.588;5.288;2023-05-28T05:56:28;9.55;;;5.00;;
32200;SDS011;18701;45.588;5.288;2023-05-28T05:58:53;7.97;;;5.80;;
32200;SDS011;18701;45.588;5.288;2023-05-28T06:01:20;11.38;;;5.78;;
32200;SDS011;18701;45.588;5.288;2023-05-28T06:03:46;11.60;;;5.90;;
32200;SDS011;18701;45.588;5.288;2023-05-28T06:06:12;11.98;;;6.22;;
32200;SDS011;18701;45.588;5.288;2023-05-28T06:08:38;11.68;;;6.53;;
32200;SDS011;18701;45.588;5.288;2023-05-28T06:11:04;10.45;;;5.20;;
32200;SDS011;18701;45.588;5.288;2023-05-28T06:13:30;10.68;;;5.35;;
32200;SDS011;18701;45.588;5.288;2023-05-28T06:15:56;11.40;;;5.45;;
32200;SDS011;18701;45.588;5.288;2023-05-28T06:18:22;11.40;;;5.75;;
32200;SDS011;18701;45.588;5.288;2023-05-28T06:20:49;12.75;;;5.57;;
32200;SDS011;18701;45.588;5.288;2023-05-28T06:23:15;8.93;;;5.10;;
32200;SDS011;18701;45.588;5.288;2023-05-28T06:25:41;9.90;;;5.47;;
32200;SDS011;18701;45.588;5.288;2023-05-28T06:28:08;14.90;;;5.85;;
32200;SDS011;18701;45.588;5.288;2023-05-28T06:30:35;8.27;;;4.82;;
32200;SDS011;18701;45.588;5.288;2023-05-28T06:33:00;9.98;;;5.65;;
32200;SDS011;18701;45.588;5.288;2023-05-28T06:35:26;8.18;;;5.20;;
32200;SDS011;18701;45.588;5.288;2023-05-28T06:37:52;9.23;;;5.30;;
32200;SDS011;18701;45.588;5.288;2023-05-28T06:40:17;12.68;;;5.75;;
32200;SDS011;18701;45.588;5.288;2023-05-28T06:42:43;12.07;;;6.07;;
32200;SDS011;18701;45.588;5.288;2023-05-28T06:45:09;10.32;;;5.82;;
32200;SDS011;18701;45.588;5.288;2023-05-28T06:47:35;7.57;;;5.85;;
32200;SDS011;18701;45.588;5.288;2023-05-28T06:50:01;12.23;;;5.90;;
32200;SDS011;18701;45.588;5.288;2023-05-28T06:52:27;12.75;;;6.00;;
32200;SDS011;18701;45.588;5.288;2023-05-28T06:54:53;10.30;;;5.57;;
32200;SDS011;18701;45.588;5.288;2023-05-28T06:57:19;12.07;;;6.50;;
32200;SDS011;18701;45.588;5.288;2023-05-28T06:59:45;13.38;;;6.28;;
32200;SDS011;18701;45.588;5.288;2023-05-28T07:02:11;16.77;;;6.88;;
32200;SDS011;18701;45.588;5.288;2023-05-28T07:04:37;16.02;;;6.68;;
32200;SDS011;18701;45.588;5.288;2023-05-28T07:07:03;13.35;;;6.68;;
32200;SDS011;18701;45.588;5.288;2023-05-28T07:09:29;12.07;;;5.82;;
32200;SDS011;18701;45.588;5.288;2023-05-28T07:11:55;13.20;;;6.43;;
32200;SDS011;18701;45.588;5.288;2023-05-28T07:14:20;9.82;;;6.70;;
32200;SDS011;18701;45.588;5.288;2023-05-28T07:16:46;11.68;;;6.72;;
32200;SDS011;18701;45.588;5.288;2023-05-28T07:19:11;12.02;;;5.78;;
32200;SDS011;18701;45.588;5.288;2023-05-28T07:21:37;11.25;;;6.65;;
32200;SDS011;18701;45.588;5.288;2023-05-28T07:24:03;12.88;;;6.80;;
32200;SDS011;18701;45.588;5.288;2023-05-28T07:26:30;13.13;;;6.47;;
32200;SDS011;18701;45.588;5.288;2023-05-28T07:28:56;9.40;;;5.85;;
32200;SDS011;18701;45.588;5.288;2023-05-28T07:31:22;14.32;;;6.70;;
32200;SDS011;18701;45.588;5.288;2023-05-28T07:33:48;12.75;;;7.13;;
32200;SDS011;18701;45.588;5.288;2023-05-28T07:36:14;14.15;;;6.32;;
32200;SDS011;18701;45.588;5.288;2023-05-28T07:38:41;10.82;;;6.60;;
32200;SDS011;18701;45.588;5.288;2023-05-28T07:41:09;13.10;;;6.22;;
32200;SDS011;18701;45.588;5.288;2023-05-28T07:43:35;9.85;;;5.75;;
32200;SDS011;18701;45.588;5.288;2023-05-28T07:46:01;10.77;;;6.70;;
32200;SDS011;18701;45.588;5.288;2023-05-28T07:48:26;10.07;;;5.80;;
32200;SDS011;18701;45.588;5.288;2023-05-28T07:50:52;9.80;;;6.25;;
32200;SDS011;18701;45.588;5.288;2023-05-28T07:53:18;10.23;;;5.90;;
32200;SDS011;18701;45.588;5.288;2023-05-28T07:55:44;12.95;;;6.50;;
32200;SDS011;18701;45.588;5.288;2023-05-28T07:58:10;11.20;;;5.97;;
32200;SDS011;18701;45.588;5.288;2023-05-28T08:00:38;12.55;;;6.25;;
32200;SDS011;18701;45.588;5.288;2023-05-28T08:03:06;12.82;;;6.00;;
32200;SDS011;18701;45.588;5.288;2023-05-28T08:05:32;12.82;;;5.78;;
32200;SDS011;18701;45.588;5.288;2023-05-28T08:07:58;11.10;;;6.10;;
32200;SDS011;18701;45.588;5.288;2023-05-28T08:10:24;9.95;;;5.95;;
32200;SDS011;18701;45.588;5.288;2023-05-28T08:12:50;15.63;;;6.90;;
32200;SDS011;18701;45.588;5.288;2023-05-28T08:15:15;10.68;;;6.82;;
32200;SDS011;18701;45.588;5.288;2023-05-28T08:17:41;14.77;;;6.47;;
32200;SDS011;18701;45.588;5.288;2023-05-28T08:20:07;18.30;;;7.55;;
32200;SDS011;18701;45.588;5.288;2023-05-28T08:22:35;13.68;;;5.90;;
32200;SDS011;18701;45.588;5.288;2023-05-28T08:25:01;12.50;;;6.75;;
32200;SDS011;18701;45.588;5.288;2023-05-28T08:27:27;8.93;;;5.97;;
32200;SDS011;18701;45.588;5.288;2023-05-28T08:29:53;12.10;;;6.25;;
32200;SDS011;18701;45.588;5.288;2023-05-28T08:32:18;10.23;;;5.57;;
32200;SDS011;18701;45.588;5.288;2023-05-28T08:34:44;13.75;;;6.43;;
32200;SDS011;18701;45.588;5.288;2023-05-28T08:37:10;12.65;;;6.22;;
32200;SDS011;18701;45.588;5.288;2023-05-28T08:39:37;13.98;;;6.20;;
32200;SDS011;18701;45.588;5.288;2023-05-28T08:42:03;16.17;;;6.97;;
32200;SDS011;18701;45.588;5.288;2023-05-28T08:44:29;24.83;;;12.02;;
32200;SDS011;18701;45.588;5.288;2023-05-28T08:46:55;12.63;;;5.43;;
32200;SDS011;18701;45.588;5.288;2023-05-28T08:49:20;17.45;;;6.53;;
32200;SDS011;18701;45.588;5.288;2023-05-28T08:52:00;8.90;;;5.80;;
32200;SDS011;18701;45.588;5.288;2023-05-28T08:54:29;14.73;;;6.88;;
32200;SDS011;18701;45.588;5.288;2023-05-28T08:56:55;11.30;;;6.32;;
32200;SDS011;18701;45.588;5.288;2023-05-28T08:59:22;17.60;;;6.95;;
32200;SDS011;18701;45.588;5.288;2023-05-28T09:01:49;9.93;;;6.43;;
32200;SDS011;18701;45.588;5.288;2023-05-28T09:04:16;14.02;;;6.03;;
32200;SDS011;18701;45.588;5.288;2023-05-28T09:06:42;10.32;;;5.85;;
32200;SDS011;18701;45.588;5.288;2023-05-28T09:09:07;7.97;;;5.03;;
32200;SDS011;18701;45.588;5.288;2023-05-28T09:11:34;10.13;;;5.55;;
32200;SDS011;18701;45.588;5.288;2023-05-28T09:14:01;10.95;;;5.72;;
32200;SDS011;18701;45.588;5.288;2023-05-28T09:16:34;8.30;;;5.13;;
32200;SDS011;18701;45.588;5.288;2023-05-28T09:19:03;12.57;;;7.20;;
32200;SDS011;18701;45.588;5.288;2023-05-28T09:21:29;16.15;;;5.28;;
32200;SDS011;18701;45.588;5.288;2023-05-28T09:23:56;15.60;;;6.47;;
32200;SDS011;18701;45.588;5.288;2023-05-28T09:26:31;13.45;;;6.32;;
32200;SDS011;18701;45.588;5.288;2023-05-28T09:28:57;8.25;;;5.18;;
32200;SDS011;18701;45.588;5.288;2023-05-28T09:31:30;14.75;;;6.32;;
32200;SDS011;18701;45.588;5.288;2023-05-28T09:33:58;13.23;;;7.25;;
32200;SDS011;18701;45.588;5.288;2023-05-28T09:36:28;15.80;;;6.63;;
32200;SDS011;18701;45.588;5.288;2023-05-28T09:38:55;14.45;;;5.53;;
32200;SDS011;18701;45.588;5.288;2023-05-28T09:41:22;7.80;;;5.40;;
32200;SDS011;18701;45.588;5.288;2023-05-28T09:44:03;11.85;;;5.28;;
32200;SDS011;18701;45.588;5.288;2023-05-28T09:48:56;13.80;;;5.00;;
32200;SDS011;18701;45.588;5.288;2023-05-28T09:51:26;7.80;;;5.03;;
32200;SDS011;18701;45.588;5.288;2023-05-28T09:53:57;9.80;;;4.97;;
32200;SDS011;18701;45.588;5.288;2023-05-28T09:56:28;10.02;;;5.22;;
32200;SDS011;18701;45.588;5.288;2023-05-28T09:58:58;15.85;;;6.40;;
32200;SDS011;18701;45.588;5.288;2023-05-28T10:01:31;9.65;;;5.25;;
32200;SDS011;18701;45.588;5.288;2023-05-28T10:04:06;11.57;;;5.15;;
32200;SDS011;18701;45.588;5.288;2023-05-28T10:06:34;14.32;;;5.47;;
32200;SDS011;18701;45.588;5.288;2023-05-28T10:09:02;8.55;;;4.93;;
32200;SDS011;18701;45.588;5.288;2023-05-28T10:11:30;9.45;;;4.82;;
32200;SDS011;18701;45.588;5.288;2023-05-28T10:14:03;8.15;;;4.75;;
32200;SDS011;18701;45.588;5.288;2023-05-28T10:16:31;12.55;;;4.85;;
32200;SDS011;18701;45.588;5.288;2023-05-28T10:18:57;11.35;;;4.95;;
32200;SDS011;18701;45.588;5.288;2023-05-28T10:21:23;12.35;;;4.90;;
32200;SDS011;18701;45.588;5.288;2023-05-28T10:23:49;19.45;;;5.05;;
32200;SDS011;18701;45.588;5.288;2023-05-28T10:26:15;13.45;;;7.78;;
32200;SDS011;18701;45.588;5.288;2023-05-28T10:28:42;10.43;;;5.10;;
32200;SDS011;18701;45.588;5.288;2023-05-28T10:31:08;17.70;;;8.90;;
32200;SDS011;18701;45.588;5.288;2023-05-28T10:33:41;6.93;;;5.13;;
32200;SDS011;18701;45.588;5.288;2023-05-28T10:36:12;6.93;;;4.95;;
32200;SDS011;18701;45.588;5.288;2023-05-28T10:38:45;8.40;;;5.18;;
32200;SDS011;18701;45.588;5.288;2023-05-28T10:41:23;9.55;;;4.75;;
32200;SDS011;18701;45.588;5.288;2023-05-28T10:43:49;9.80;;;4.63;;
32200;SDS011;18701;45.588;5.288;2023-05-28T10:46:19;11.57;;;4.35;;
32200;SDS011;18701;45.588;5.288;2023-05-28T10:51:43;11.25;;;4.40;;
32200;SDS011;18701;45.588;5.288;2023-05-28T11:02:30;11.77;;;4.47;;
32200;SDS011;18701;45.588;5.288;2023-05-28T11:04:59;10.75;;;4.90;;
32200;SDS011;18701;45.588;5.288;2023-05-28T11:07:30;9.05;;;4.95;;
32200;SDS011;18701;45.588;5.288;2023-05-28T11:09:59;9.85;;;4.72;;
32200;SDS011;18701;45.588;5.288;2023-05-28T11:12:25;11.13;;;4.70;;
32200;SDS011;18701;45.588;5.288;2023-05-28T11:14:52;10.07;;;4.93;;
32200;SDS011;18701;45.588;5.288;2023-05-28T11:17:18;9.57;;;4.65;;
32200;SDS011;18701;45.588;5.288;2023-05-28T11:19:44;10.73;;;4.38;;
32200;SDS011;18701;45.588;5.288;2023-05-28T11:22:12;7.88;;;4.50;;
32200;SDS011;18701;45.588;5.288;2023-05-28T11:24:57;10.10;;;4.47;;
32200;SDS011;18701;45.588;5.288;2023-05-28T11:27:28;8.27;;;4.60;;
32200;SDS011;18701;45.588;5.288;2023-05-28T11:29:56;6.18;;;4.20;;
32200;SDS011;18701;45.588;5.288;2023-05-28T11:32:24;11.68;;;4.15;;
32200;SDS011;18701;45.588;5.288;2023-05-28T11:34:51;8.73;;;4.07;;
32200;SDS011;18701;45.588;5.288;2023-05-28T11:40:13;10.10;;;4.10;;
32200;SDS011;18701;45.588;5.288;2023-05-28T11:42:42;6.68;;;3.90;;
32200;SDS011;18701;45.588;5.288;2023-05-28T11:45:09;7.30;;;4.22;;
32200;SDS011;18701;45.588;5.288;2023-05-28T11:47:36;6.97;;;4.22;;
32200;SDS011;18701;45.588;5.288;2023-05-28T11:50:06;6.80;;;4.07;;
32200;SDS011;18701;45.588;5.288;2023-05-28T11:52:36;8.73;;;4.53;;
32200;SDS011;18701;45.588;5.288;2023-05-28T11:55:02;7.88;;;3.97;;
32200;SDS011;18701;45.588;5.288;2023-05-28T11:57:29;10.43;;;3.95;;
32200;SDS011;18701;45.588;5.288;2023-05-28T12:02:40;9.65;;;6.40;;
32200;SDS011;18701;45.588;5.288;2023-05-28T12:05:13;189.65;;;168.90;;
32200;SDS011;18701;45.588;5.288;2023-05-28T12:07:43;240.05;;;215.30;;
32200;SDS011;18701;45.588;5.288;2023-05-28T12:10:12;95.78;;;85.60;;
32200;SDS011;18701;45.588;5.288;2023-05-28T12:12:39;121.65;;;90.28;;
32200;SDS011;18701;45.588;5.288;2023-05-28T12:15:07;57.63;;;42.95;;
32200;SDS011;18701;45.588;5.288;2023-05-28T12:17:37;31.02;;;26.20;;
32200;SDS011;18701;45.588;5.288;2023-05-28T12:20:27;16.98;;;8.38;;
32200;SDS011;18701;45.588;5.288;2023-05-28T12:25:46;18.70;;;13.75;;
32200;SDS011;18701;45.588;5.288;2023-05-28T12:28:13;9.43;;;5.97;;
32200;SDS011;18701;45.588;5.288;2023-05-28T12:30:41;12.85;;;5.90;;
32200;SDS011;18701;45.588;5.288;2023-05-28T12:33:08;10.32;;;5.25;;
32200;SDS011;18701;45.588;5.288;2023-05-28T12:35:35;7.20;;;4.65;;
32200;SDS011;18701;45.588;5.288;2023-05-28T12:38:01;8.20;;;4.57;;
32200;SDS011;18701;45.588;5.288;2023-05-28T12:40:27;5.90;;;3.85;;
32200;SDS011;18701;45.588;5.288;2023-05-28T12:42:53;6.75;;;4.03;;
32200;SDS011;18701;45.588;5.288;2023-05-28T12:45:18;9.93;;;5.32;;
32200;SDS011;18701;45.588;5.288;2023-05-28T12:47:44;7.00;;;3.83;;
32200;SDS011;18701;45.588;5.288;2023-05-28T12:50:10;9.70;;;3.80;;
32200;SDS011;18701;45.588;5.288;2023-05-28T12:52:36;8.95;;;3.92;;
32200;SDS011;18701;45.588;5.288;2023-05-28T12:55:02;6.43;;;3.38;;
32200;SDS011;18701;45.588;5.288;2023-05-28T12:57:28;8.00;;;3.63;;
32200;SDS011;18701;45.588;5.288;2023-05-28T12:59:53;8.90;;;4.03;;
32200;SDS011;18701;45.588;5.288;2023-05-28T13:02:21;8.70;;;3.25;;
32200;SDS011;18701;45.588;5.288;2023-05-28T13:04:46;9.18;;;3.72;;
32200;SDS011;18701;45.588;5.288;2023-05-28T13:07:12;7.20;;;3.58;;
32200;SDS011;18701;45.588;5.288;2023-05-28T13:09:38;8.32;;;3.67;;
32200;SDS011;18701;45.588;5.288;2023-05-28T13:12:03;11.45;;;3.78;;
32200;SDS011;18701;45.588;5.288;2023-05-28T13:14:29;7.13;;;3.63;;
32200;SDS011;18701;45.588;5.288;2023-05-28T13:16:58;11.07;;;3.50;;
32200;SDS011;18701;45.588;5.288;2023-05-28T13:19:24;5.50;;;3.20;;
32200;SDS011;18701;45.588;5.288;2023-05-28T13:21:50;8.60;;;3.63;;
32200;SDS011;18701;45.588;5.288;2023-05-28T13:24:16;5.90;;;2.83;;
32200;SDS011;18701;45.588;5.288;2023-05-28T13:26:41;5.05;;;3.08;;
32200;SDS011;18701;45.588;5.288;2023-05-28T13:29:07;7.70;;;2.88;;
32200;SDS011;18701;45.588;5.288;2023-05-28T13:31:33;6.05;;;3.05;;
32200;SDS011;18701;45.588;5.288;2023-05-28T13:33:59;6.07;;;2.72;;
32200;SDS011;18701;45.588;5.288;2023-05-28T13:36:25;7.80;;;2.60;;
32200;SDS011;18701;45.588;5.288;2023-05-28T13:38:51;4.88;;;3.05;;
32200;SDS011;18701;45.588;5.288;2023-05-28T13:41:17;5.60;;;2.85;;
32200;SDS011;18701;45.588;5.288;2023-05-28T13:43:43;8.27;;;3.05;;
32200;SDS011;18701;45.588;5.288;2023-05-28T13:46:09;5.70;;;3.20;;
32200;SDS011;18701;45.588;5.288;2023-05-28T13:48:35;7.88;;;3.50;;
32200;SDS011;18701;45.588;5.288;2023-05-28T13:51:02;6.22;;;2.85;;
32200;SDS011;18701;45.588;5.288;2023-05-28T13:53:28;5.57;;;2.65;;
32200;SDS011;18701;45.588;5.288;2023-05-28T13:55:54;6.22;;;2.75;;
32200;SDS011;18701;45.588;5.288;2023-05-28T13:58:20;5.45;;;2.60;;
32200;SDS011;18701;45.588;5.288;2023-05-28T14:00:47;5.60;;;2.72;;
32200;SDS011;18701;45.588;5.288;2023-05-28T14:03:12;9.57;;;2.92;;
32200;SDS011;18701;45.588;5.288;2023-05-28T14:05:39;8.40;;;2.55;;
32200;SDS011;18701;45.588;5.288;2023-05-28T14:08:06;7.38;;;2.33;;
32200;SDS011;18701;45.588;5.288;2023-05-28T14:10:32;4.50;;;2.40;;
32200;SDS011;18701;45.588;5.288;2023-05-28T14:12:57;6.80;;;2.70;;
32200;SDS011;18701;45.588;5.288;2023-05-28T14:15:23;11.75;;;2.75;;
32200;SDS011;18701;45.588;5.288;2023-05-28T14:17:49;7.38;;;2.00;;
32200;SDS011;18701;45.588;5.288;2023-05-28T14:20:15;6.85;;;2.90;;
32200;SDS011;18701;45.588;5.288;2023-05-28T14:22:41;7.53;;;2.95;;
32200;SDS011;18701;45.588;5.288;2023-05-28T14:25:09;10.30;;;2.30;;
32200;SDS011;18701;45.588;5.288;2023-05-28T14:27:37;6.95;;;2.45;;
32200;SDS011;18701;45.588;5.288;2023-05-28T14:30:03;7.03;;;2.20;;
32200;SDS011;18701;45.588;5.288;2023-05-28T14:32:29;8.63;;;2.55;;
32200;SDS011;18701;45.588;5.288;2023-05-28T14:34:55;4.78;;;2.42;;
32200;SDS011;18701;45.588;5.288;2023-05-28T14:37:21;5.00;;;2.30;;
32200;SDS011;18701;45.588;5.288;2023-05-28T14:39:46;5.50;;;2.03;;
32200;SDS011;18701;45.588;5.288;2023-05-28T14:42:12;5.63;;;2.50;;
32200;SDS011;18701;45.588;5.288;2023-05-28T14:44:37;6.85;;;2.17;;
32200;SDS011;18701;45.588;5.288;2023-05-28T14:47:03;4.43;;;2.30;;
32200;SDS011;18701;45.588;5.288;2023-05-28T14:49:29;7.10;;;2.17;;
32200;SDS011;18701;45.588;5.288;2023-05-28T14:51:55;3.88;;;1.67;;
32200;SDS011;18701;45.588;5.288;2023-05-28T14:54:22;5.97;;;1.95;;
32200;SDS011;18701;45.588;5.288;2023-05-28T14:56:47;6.90;;;2.30;;
32200;SDS011;18701;45.588;5.288;2023-05-28T14:59:13;3.75;;;2.08;;